createdAt,value
2022-10-20T00:01:16.632Z,14.80
2022-10-20T00:03:44.233Z,18.33
2022-10-20T00:06:14.698Z,17.97
2022-10-20T00:08:42.961Z,15.57
2022-10-20T00:11:13.587Z,16.77
2022-10-20T00:13:41.944Z,14.83
2022-10-20T00:16:09.168Z,20.47
2022-10-20T00:18:37.434Z,16.60
2022-10-20T00:21:19.546Z,15.60
2022-10-20T00:23:47.030Z,18.27
2022-10-20T00:26:18.290Z,14.90
2022-10-20T00:28:45.917Z,16.47
2022-10-20T00:31:13.548Z,16.67
2022-10-20T00:33:40.735Z,16.27
2022-10-20T00:36:11.483Z,13.63
2022-10-20T00:38:38.655Z,16.00
2022-10-20T00:41:07.312Z,16.47
2022-10-20T00:43:42.832Z,16.27
2022-10-20T00:46:15.674Z,16.07
2022-10-20T00:48:45.895Z,16.70
2022-10-20T00:51:16.567Z,13.63
2022-10-20T00:53:45.557Z,17.03
2022-10-20T00:56:13.062Z,13.47
2022-10-20T00:58:40.296Z,17.07
2022-10-20T01:01:07.644Z,16.40
2022-10-20T01:03:46.096Z,16.30
2022-10-20T01:08:49.007Z,15.53
2022-10-20T01:11:26.190Z,16.70
2022-10-20T01:14:16.686Z,18.27
2022-10-20T01:17:10.219Z,16.57
2022-10-20T01:19:40.043Z,18.30
2022-10-20T01:22:27.182Z,17.40
2022-10-20T01:25:07.224Z,15.70
2022-10-20T01:27:41.874Z,18.23
2022-10-20T01:30:21.555Z,17.40
2022-10-20T01:32:54.325Z,16.03
2022-10-20T01:35:27.732Z,17.03
2022-10-20T01:38:17.327Z,16.50
2022-10-20T01:40:54.766Z,17.30
2022-10-20T01:43:25.920Z,17.47
2022-10-20T01:45:54.788Z,18.93
2022-10-20T01:48:26.603Z,16.07
2022-10-20T01:50:53.763Z,16.53
2022-10-20T01:53:21.434Z,16.07
2022-10-20T01:55:54.539Z,19.13
2022-10-20T01:58:46.004Z,19.33
2022-10-20T02:01:34.851Z,15.43
2022-10-20T02:04:05.431Z,16.97
2022-10-20T02:07:10.689Z,16.53
2022-10-20T02:09:51.164Z,17.67
2022-10-20T02:12:25.822Z,17.50
2022-10-20T02:14:54.553Z,18.03
2022-10-20T02:17:21.860Z,17.47
2022-10-20T02:19:52.393Z,16.33
2022-10-20T02:22:21.204Z,16.07
2022-10-20T02:24:49.165Z,18.23
2022-10-20T02:27:28.305Z,18.17
2022-10-20T02:30:00.785Z,16.43
2022-10-20T02:32:28.626Z,17.37
2022-10-20T02:34:55.918Z,17.90
2022-10-20T02:37:23.258Z,17.67
2022-10-20T02:39:50.287Z,16.43
2022-10-20T02:42:17.653Z,17.53
2022-10-20T02:44:44.705Z,18.73
2022-10-20T02:47:11.836Z,17.10
2022-10-20T02:49:39.055Z,17.77
2022-10-20T02:52:06.267Z,17.23
2022-10-20T02:54:34.158Z,19.37
2022-10-20T02:57:02.285Z,19.20
2022-10-20T02:59:29.401Z,17.63
2022-10-20T03:01:56.787Z,15.87
2022-10-20T03:06:50.929Z,17.83
2022-10-20T03:09:18.085Z,17.77
2022-10-20T03:11:45.273Z,16.73
2022-10-20T03:14:12.441Z,16.03
2022-10-20T03:16:40.026Z,18.20
2022-10-20T03:19:09.170Z,17.60
2022-10-20T03:21:38.848Z,14.57
2022-10-20T03:24:06.295Z,16.07
2022-10-20T03:26:33.495Z,19.07
2022-10-20T03:29:00.525Z,16.57
2022-10-20T03:31:27.722Z,17.07
2022-10-20T03:33:54.858Z,15.83
2022-10-20T03:36:22.114Z,15.33
2022-10-20T03:38:49.184Z,15.37
2022-10-20T03:41:16.312Z,17.53
2022-10-20T03:43:43.593Z,16.57
2022-10-20T03:46:12.047Z,19.23
2022-10-20T03:48:40.436Z,16.13
2022-10-20T03:51:09.526Z,17.30
2022-10-20T03:53:36.563Z,17.40
2022-10-20T03:56:08.221Z,13.43
2022-10-20T03:58:36.144Z,17.47
2022-10-20T04:01:04.505Z,17.10
2022-10-20T04:03:31.546Z,15.37
2022-10-20T04:05:58.587Z,16.73
2022-10-20T04:08:25.705Z,15.20
2022-10-20T04:10:52.798Z,15.37
2022-10-20T04:13:19.894Z,19.37
2022-10-20T04:15:46.905Z,17.70
2022-10-20T04:18:15.069Z,16.63
2022-10-20T04:20:44.432Z,16.90
2022-10-20T04:23:12.292Z,17.23
2022-10-20T04:25:46.011Z,16.30
2022-10-20T04:28:15.228Z,18.10
2022-10-20T04:30:42.828Z,17.10
2022-10-20T04:33:10.234Z,17.27
2022-10-20T04:35:37.286Z,15.63
2022-10-20T04:38:05.048Z,17.30
2022-10-20T04:40:32.362Z,16.40
2022-10-20T04:43:01.240Z,16.13
2022-10-20T04:45:28.807Z,17.57
2022-10-20T04:47:56.022Z,15.57
2022-10-20T04:50:22.992Z,15.37
2022-10-20T04:53:07.756Z,17.07
2022-10-20T04:55:35.265Z,16.60
2022-10-20T04:58:03.909Z,15.80
2022-10-20T05:00:30.973Z,19.17
2022-10-20T05:02:58.073Z,15.70
2022-10-20T05:05:25.401Z,16.53
2022-10-20T05:07:53.823Z,17.77
2022-10-20T05:10:21.171Z,15.63
2022-10-20T05:12:49.113Z,14.60
2022-10-20T05:15:16.410Z,16.10
2022-10-20T05:17:43.485Z,15.20
2022-10-20T05:20:10.837Z,14.37
2022-10-20T05:22:38.155Z,14.37
2022-10-20T05:25:35.145Z,15.67
2022-10-20T05:27:53.253Z,17.17
2022-10-20T05:30:20.330Z,15.20
2022-10-20T05:32:47.546Z,13.47
2022-10-20T05:35:17.376Z,15.33
2022-10-20T05:37:44.529Z,15.60
2022-10-20T05:40:11.970Z,16.87
2022-10-20T05:42:39.660Z,16.70
2022-10-20T05:45:07.552Z,17.37
2022-10-20T05:47:35.133Z,13.43
2022-10-20T05:50:02.357Z,16.20
2022-10-20T05:52:29.549Z,16.00
2022-10-20T05:54:56.719Z,17.30
2022-10-20T05:57:24.177Z,14.40
2022-10-20T05:59:51.235Z,15.43
2022-10-20T06:02:18.379Z,14.53
2022-10-20T06:04:45.540Z,16.43
2022-10-20T06:07:12.602Z,16.47
2022-10-20T06:09:40.028Z,15.90
2022-10-20T06:14:36.238Z,14.93
2022-10-20T06:17:04.062Z,13.80
2022-10-20T06:19:31.176Z,15.17
2022-10-20T06:22:02.400Z,17.10
2022-10-20T06:24:34.459Z,16.40
2022-10-20T06:27:02.224Z,16.53
2022-10-20T06:29:29.478Z,16.20
2022-10-20T06:31:57.122Z,13.67
2022-10-20T06:34:26.107Z,14.13
2022-10-20T06:36:53.790Z,13.90
2022-10-20T06:39:22.879Z,15.27
2022-10-20T06:41:52.810Z,16.57
2022-10-20T06:44:22.996Z,13.57
2022-10-20T06:46:52.756Z,14.23
2022-10-20T06:49:20.471Z,13.03
2022-10-20T06:51:48.011Z,15.20
2022-10-20T06:54:15.305Z,13.60
2022-10-20T06:56:42.869Z,14.77
2022-10-20T06:59:10.781Z,13.50
2022-10-20T07:01:39.438Z,14.87
2022-10-20T07:04:10.385Z,15.33
2022-10-20T07:06:40.369Z,17.83
2022-10-20T07:09:12.680Z,14.80
2022-10-20T07:11:41.543Z,14.13
2022-10-20T07:14:13.763Z,14.33
2022-10-20T07:16:41.413Z,16.23
2022-10-20T07:19:08.550Z,14.60
2022-10-20T07:21:38.363Z,14.03
2022-10-20T07:24:08.199Z,13.67
2022-10-20T07:26:39.195Z,12.80
2022-10-20T07:29:07.264Z,14.47
2022-10-20T07:31:48.092Z,14.40
2022-10-20T07:34:27.266Z,14.33
2022-10-20T07:36:56.766Z,14.70
2022-10-20T07:39:25.145Z,14.37
2022-10-20T07:41:52.573Z,16.73
2022-10-20T07:44:20.168Z,16.00
2022-10-20T07:46:47.480Z,17.83
2022-10-20T07:52:02.065Z,14.73
2022-10-20T07:54:29.273Z,16.60
2022-10-20T07:56:56.812Z,14.93
2022-10-20T07:59:24.774Z,16.67
2022-10-20T08:01:54.728Z,16.03
2022-10-20T08:04:24.660Z,14.60
2022-10-20T08:06:52.066Z,17.67
2022-10-20T08:09:19.601Z,14.83
2022-10-20T08:11:49.360Z,14.50
2022-10-20T08:14:18.511Z,14.87
2022-10-20T08:16:49.859Z,16.40
2022-10-20T08:19:30.415Z,14.10
2022-10-20T08:21:57.581Z,15.03
2022-10-20T08:24:24.937Z,14.20
2022-10-20T08:26:52.452Z,14.83
2022-10-20T08:29:19.678Z,14.60
2022-10-20T08:31:46.978Z,15.83
2022-10-20T08:34:14.321Z,16.37
2022-10-20T08:36:43.811Z,12.23
2022-10-20T08:39:11.265Z,13.43
2022-10-20T08:42:06.271Z,15.57
2022-10-20T08:44:34.425Z,15.43
2022-10-20T08:47:14.509Z,14.47
2022-10-20T08:49:41.670Z,14.70
2022-10-20T08:52:17.279Z,15.63
2022-10-20T08:54:44.653Z,13.97
2022-10-20T08:57:24.773Z,14.07
2022-10-20T08:59:54.167Z,16.83
2022-10-20T09:02:22.422Z,13.73
2022-10-20T09:04:57.187Z,14.27
2022-10-20T09:07:32.246Z,14.43
2022-10-20T09:10:18.884Z,14.60
2022-10-20T09:12:48.604Z,17.07
2022-10-20T09:15:21.253Z,17.23
2022-10-20T09:18:03.876Z,15.43
2022-10-20T09:20:37.695Z,12.57
2022-10-20T09:23:16.622Z,16.03
2022-10-20T09:25:53.538Z,15.37
2022-10-20T09:28:34.820Z,14.97
2022-10-20T09:31:34.836Z,16.50
2022-10-20T09:34:02.204Z,12.83
2022-10-20T09:36:34.194Z,14.67
2022-10-20T09:39:02.347Z,15.47
2022-10-20T09:41:36.075Z,14.63
2022-10-20T09:44:09.201Z,14.50
2022-10-20T09:46:48.907Z,15.67
2022-10-20T09:49:28.568Z,14.07
2022-10-20T09:51:56.200Z,13.70
2022-10-20T09:54:25.780Z,14.80
2022-10-20T09:56:54.526Z,13.73
2022-10-20T09:59:31.870Z,15.40
2022-10-20T10:02:23.496Z,15.37
2022-10-20T10:04:52.847Z,14.67
2022-10-20T10:07:22.973Z,15.43
2022-10-20T10:10:17.871Z,13.43
2022-10-20T10:12:52.753Z,13.80
2022-10-20T10:15:23.116Z,12.43
2022-10-20T10:17:51.431Z,15.63
2022-10-20T10:20:21.296Z,14.73
2022-10-20T10:22:49.145Z,15.80
2022-10-20T10:25:27.736Z,12.30
2022-10-20T10:28:09.241Z,13.23
2022-10-20T10:30:38.514Z,13.93
2022-10-20T10:33:27.269Z,12.47
2022-10-20T10:35:54.704Z,12.47
2022-10-20T10:38:22.138Z,13.10
2022-10-20T10:41:01.034Z,14.43
2022-10-20T10:44:09.547Z,14.30
2022-10-20T10:47:01.736Z,12.97
2022-10-20T10:49:34.589Z,12.07
2022-10-20T10:52:49.902Z,14.30
2022-10-20T10:55:47.817Z,11.03
2022-10-20T10:58:35.096Z,13.50
2022-10-20T11:01:31.448Z,9.80
2022-10-20T11:04:29.238Z,11.77
2022-10-20T11:07:18.210Z,10.90
2022-10-20T11:10:00.897Z,10.77
2022-10-20T11:12:33.654Z,10.83
2022-10-20T11:15:35.094Z,10.57
2022-10-20T11:18:22.334Z,11.33
2022-10-20T11:21:09.939Z,10.57
2022-10-20T11:24:30.907Z,10.13
2022-10-20T11:27:29.971Z,10.23
2022-10-20T11:30:09.472Z,11.07
2022-10-20T11:32:46.812Z,10.27
2022-10-20T11:35:28.722Z,10.10
2022-10-20T11:38:15.282Z,11.73
2022-10-20T11:40:56.412Z,13.20
2022-10-20T11:43:29.356Z,11.47
2022-10-20T11:46:01.461Z,14.33
2022-10-20T11:48:36.925Z,10.60
2022-10-20T11:51:31.479Z,11.43
2022-10-20T11:54:04.664Z,11.10
2022-10-20T11:57:05.427Z,11.40
2022-10-20T12:00:00.759Z,8.67
2022-10-20T12:02:55.544Z,10.03
2022-10-20T12:05:44.313Z,9.80
2022-10-20T12:08:38.371Z,10.43
2022-10-20T12:11:36.886Z,8.60
2022-10-20T12:14:33.495Z,10.27
2022-10-20T12:17:46.824Z,11.80
2022-10-20T12:20:37.479Z,9.53
2022-10-20T12:23:05.025Z,11.23
2022-10-20T12:25:36.432Z,14.57
2022-10-20T12:28:20.125Z,11.00
2022-10-20T12:30:59.371Z,12.03
2022-10-20T12:33:51.085Z,11.40
2022-10-20T12:36:18.617Z,11.50
2022-10-20T12:38:51.250Z,13.10
2022-10-20T12:41:34.513Z,10.00
2022-10-20T12:44:07.613Z,12.03
2022-10-20T12:46:42.155Z,11.00
2022-10-20T12:49:20.813Z,12.70
2022-10-20T12:51:56.427Z,13.70
2022-10-20T12:54:48.760Z,11.13
2022-10-20T12:57:37.137Z,10.87
2022-10-20T13:00:27.708Z,10.50
2022-10-20T13:02:58.964Z,10.63
2022-10-20T13:05:40.932Z,12.10
2022-10-20T13:08:20.251Z,10.63
2022-10-20T13:10:50.639Z,11.10
2022-10-20T13:13:18.222Z,11.27
2022-10-20T13:15:49.962Z,13.10
2022-10-20T13:18:28.937Z,11.83
2022-10-20T13:21:07.339Z,12.10
2022-10-20T13:23:42.688Z,13.20
2022-10-20T13:26:19.240Z,11.87
2022-10-20T13:28:49.019Z,10.83
2022-10-20T13:31:33.066Z,10.73
2022-10-20T13:34:31.005Z,11.17
2022-10-20T13:37:26.129Z,11.17
2022-10-20T13:40:24.170Z,10.83
2022-10-20T13:43:09.827Z,11.27
2022-10-20T13:45:51.150Z,10.53
2022-10-20T13:48:58.346Z,8.57
2022-10-20T13:51:32.173Z,9.87
2022-10-20T13:54:03.109Z,10.10
2022-10-20T13:56:42.481Z,12.27
2022-10-20T13:59:17.831Z,12.40
2022-10-20T14:01:53.926Z,11.00
2022-10-20T14:04:25.842Z,10.13
2022-10-20T14:06:54.205Z,9.93
2022-10-20T14:09:25.825Z,9.93
2022-10-20T14:12:08.440Z,11.57
2022-10-20T14:14:36.000Z,10.60
2022-10-20T14:17:06.701Z,9.70
2022-10-20T14:19:34.858Z,13.57
2022-10-20T14:22:25.460Z,11.83
2022-10-20T14:24:58.483Z,11.73
2022-10-20T14:27:31.079Z,10.70
2022-10-20T14:29:59.960Z,13.50
2022-10-20T14:32:30.857Z,12.47
2022-10-20T14:35:02.296Z,12.13
2022-10-20T14:37:40.321Z,11.37
2022-10-20T14:40:24.170Z,13.10
2022-10-20T14:42:52.256Z,12.33
2022-10-20T14:45:26.426Z,11.27
2022-10-20T14:47:57.415Z,11.37
2022-10-20T14:50:37.224Z,13.33
2022-10-20T14:53:22.751Z,11.67
2022-10-20T14:55:50.137Z,10.90
2022-10-20T14:58:37.262Z,11.87
2022-10-20T15:01:14.590Z,10.93
2022-10-20T15:03:42.087Z,11.27
2022-10-20T15:06:16.822Z,11.60
2022-10-20T15:08:57.874Z,14.07
2022-10-20T15:11:28.356Z,12.67
2022-10-20T15:13:59.235Z,11.40
2022-10-20T15:16:44.815Z,12.50
2022-10-20T15:19:29.601Z,10.87
2022-10-20T15:22:07.938Z,10.97
2022-10-20T15:24:35.245Z,10.90
2022-10-20T15:27:03.238Z,11.50
2022-10-20T15:29:31.015Z,13.20
2022-10-20T15:31:59.269Z,14.47
2022-10-20T15:34:26.522Z,10.27
2022-10-20T15:36:53.747Z,10.10
2022-10-20T15:39:21.582Z,10.33
2022-10-20T15:41:51.595Z,13.23
2022-10-20T15:44:22.535Z,12.73
2022-10-20T15:46:53.605Z,14.13
2022-10-20T15:49:21.125Z,10.83
2022-10-20T15:51:50.732Z,10.13
2022-10-20T15:54:22.857Z,10.77
2022-10-20T15:56:50.096Z,11.73
2022-10-20T15:59:17.287Z,12.80
2022-10-20T16:01:44.572Z,14.13
2022-10-20T16:04:25.388Z,9.87
2022-10-20T16:06:58.816Z,9.77
2022-10-20T16:09:27.905Z,10.67
2022-10-20T16:11:56.643Z,12.27
2022-10-20T16:14:23.998Z,13.23
2022-10-20T16:16:51.375Z,10.87
2022-10-20T16:19:18.613Z,11.97
2022-10-20T16:21:45.916Z,11.30
2022-10-20T16:24:13.186Z,10.63
2022-10-20T16:26:40.704Z,11.33
2022-10-20T16:29:07.895Z,11.53
2022-10-20T16:31:35.845Z,11.90
2022-10-20T16:34:03.103Z,10.50
2022-10-20T16:36:30.271Z,11.50
2022-10-20T16:38:58.135Z,11.60
2022-10-20T16:41:25.625Z,9.30
2022-10-20T16:43:55.248Z,11.13
2022-10-20T16:46:24.824Z,10.83
2022-10-20T16:48:52.211Z,9.60
2022-10-20T16:51:19.532Z,9.50
2022-10-20T16:53:46.752Z,8.63
2022-10-20T16:56:16.922Z,9.30
2022-10-20T16:58:47.620Z,13.37
2022-10-20T17:01:17.005Z,9.17
2022-10-20T17:03:46.505Z,12.53
2022-10-20T17:06:15.623Z,8.73
2022-10-20T17:08:43.161Z,10.10
2022-10-20T17:11:13.782Z,9.13
2022-10-20T17:13:41.677Z,10.60
2022-10-20T17:16:18.347Z,9.97
2022-10-20T17:18:48.627Z,11.57
2022-10-20T17:21:17.827Z,9.90
2022-10-20T17:23:45.563Z,9.13
2022-10-20T17:26:19.002Z,10.60
2022-10-20T17:28:46.706Z,9.87
2022-10-20T17:33:48.828Z,9.90
2022-10-20T17:36:16.432Z,10.73
2022-10-20T17:38:43.938Z,10.90
2022-10-20T17:41:15.424Z,10.50
2022-10-20T17:43:42.672Z,11.63
2022-10-20T17:46:13.668Z,11.20
2022-10-20T17:48:44.667Z,12.27
2022-10-20T17:51:19.589Z,11.33
2022-10-20T17:53:49.467Z,12.67
2022-10-20T17:56:22.354Z,12.70
2022-10-20T17:58:51.374Z,11.83
2022-10-20T18:01:31.517Z,11.50
2022-10-20T18:04:04.801Z,11.97
2022-10-20T18:06:38.736Z,14.57
2022-10-20T18:09:11.127Z,12.97
2022-10-20T18:11:40.762Z,12.53
2022-10-20T18:14:08.153Z,9.50
2022-10-20T18:16:38.165Z,11.33
2022-10-20T18:19:06.548Z,10.23
2022-10-20T18:21:34.267Z,13.80
2022-10-20T18:24:07.013Z,10.67
2022-10-20T18:26:36.877Z,11.93
2022-10-20T18:29:09.173Z,10.53
2022-10-20T18:31:38.659Z,14.67
2022-10-20T18:34:08.430Z,11.57
2022-10-20T18:36:40.373Z,12.07
2022-10-20T18:39:11.015Z,11.90
2022-10-20T18:41:40.691Z,13.27
2022-10-20T18:44:12.170Z,13.47
2022-10-20T18:46:39.881Z,11.50
2022-10-20T18:49:08.587Z,12.00
2022-10-20T18:51:37.084Z,12.57
2022-10-20T18:54:05.935Z,11.57
2022-10-20T18:56:34.034Z,9.87
2022-10-20T18:59:04.030Z,12.17
2022-10-20T19:01:33.889Z,12.60
2022-10-20T19:04:01.657Z,11.17
2022-10-20T19:06:37.760Z,10.23
2022-10-20T19:09:10.863Z,9.70
2022-10-20T19:11:39.856Z,10.57
2022-10-20T19:14:09.956Z,11.30
2022-10-20T19:16:38.141Z,12.03
2022-10-20T19:19:07.408Z,11.13
2022-10-20T19:21:38.299Z,11.43
2022-10-20T19:24:09.941Z,11.77
2022-10-20T19:26:56.857Z,10.80
2022-10-20T19:29:34.183Z,10.80
2022-10-20T19:32:03.744Z,12.07
2022-10-20T19:34:41.130Z,12.23
2022-10-20T19:37:10.914Z,10.93
2022-10-20T19:39:40.880Z,13.57
2022-10-20T19:42:09.453Z,12.67
2022-10-20T19:44:37.171Z,9.77
2022-10-20T19:47:05.420Z,11.60
2022-10-20T19:49:32.876Z,13.43
2022-10-20T19:52:01.312Z,11.93
2022-10-20T19:54:29.272Z,12.47
2022-10-20T19:56:56.563Z,12.87
2022-10-20T19:59:23.988Z,12.00
2022-10-20T20:01:52.871Z,11.77
2022-10-20T20:04:22.891Z,13.57
2022-10-20T20:06:50.178Z,14.40
2022-10-20T20:09:17.817Z,12.13
2022-10-20T20:11:45.270Z,12.83
2022-10-20T20:14:18.204Z,11.07
2022-10-20T20:16:46.492Z,12.93
2022-10-20T20:19:15.901Z,12.87
2022-10-20T20:21:43.355Z,12.87
2022-10-20T20:24:12.916Z,13.13
2022-10-20T20:26:40.240Z,12.73
2022-10-20T20:29:07.524Z,12.00
2022-10-20T20:31:34.756Z,12.10
2022-10-20T20:34:05.660Z,11.87
2022-10-20T20:36:32.998Z,11.13
2022-10-20T20:39:00.560Z,13.70
2022-10-20T20:41:30.437Z,14.57
2022-10-20T20:43:58.050Z,11.43
2022-10-20T20:46:29.495Z,10.97
2022-10-20T20:48:58.347Z,12.77
2022-10-20T20:51:27.144Z,13.03
2022-10-20T20:53:54.389Z,12.70
2022-10-20T20:56:23.342Z,11.47
2022-10-20T20:58:54.992Z,9.30
2022-10-20T21:01:28.281Z,11.07
2022-10-20T21:03:57.631Z,11.53
2022-10-20T21:06:33.717Z,13.17
2022-10-20T21:09:12.332Z,8.60
2022-10-20T21:11:39.651Z,10.37
2022-10-20T21:14:06.887Z,12.10
2022-10-20T21:16:36.375Z,10.13
2022-10-20T21:19:08.771Z,10.77
2022-10-20T21:21:38.933Z,8.60
2022-10-20T21:24:07.069Z,7.57
2022-10-20T21:26:34.546Z,7.00
2022-10-20T21:29:02.014Z,6.83
2022-10-20T21:31:30.380Z,8.23
2022-10-20T21:34:01.302Z,9.60
2022-10-20T21:36:31.615Z,7.13
2022-10-20T21:38:59.960Z,6.57
2022-10-20T21:41:32.559Z,7.73
2022-10-20T21:44:01.414Z,8.47
2022-10-20T21:46:34.353Z,6.90
2022-10-20T21:49:07.676Z,6.47
2022-10-20T21:51:40.955Z,5.30
2022-10-20T21:54:12.582Z,5.30
2022-10-20T21:56:41.657Z,8.07
2022-10-20T21:59:26.915Z,5.93
2022-10-20T22:01:57.353Z,6.00
2022-10-20T22:04:27.085Z,6.90
2022-10-20T22:06:55.486Z,4.77
2022-10-20T22:09:23.511Z,10.00
2022-10-20T22:11:55.379Z,5.87
2022-10-20T22:14:23.717Z,8.40
2022-10-20T22:16:51.290Z,8.27
2022-10-20T22:19:21.684Z,9.77
2022-10-20T22:21:50.578Z,7.70
2022-10-20T22:24:18.960Z,6.33
2022-10-20T22:26:46.320Z,5.80
2022-10-20T22:29:13.801Z,6.80
2022-10-20T22:31:41.698Z,5.80
2022-10-20T22:34:10.076Z,4.93
2022-10-20T22:36:37.696Z,6.40
2022-10-20T22:39:06.042Z,4.37
2022-10-20T22:41:33.938Z,6.60
2022-10-20T22:44:01.056Z,6.33
2022-10-20T22:46:28.125Z,4.23
2022-10-20T22:48:56.250Z,4.93
2022-10-20T22:51:24.313Z,5.47
2022-10-20T22:53:51.595Z,4.97
2022-10-20T22:56:23.892Z,4.90
2022-10-20T22:58:53.430Z,5.53
2022-10-20T23:01:22.946Z,6.43
2022-10-20T23:03:51.732Z,6.27
2022-10-20T23:06:21.725Z,5.93
2022-10-20T23:08:51.473Z,4.97
2022-10-20T23:11:19.727Z,5.63
2022-10-20T23:13:47.556Z,6.40
2022-10-20T23:16:15.346Z,5.10
2022-10-20T23:18:43.625Z,6.43
2022-10-20T23:21:12.998Z,7.73
2022-10-20T23:23:42.720Z,5.50
2022-10-20T23:26:11.218Z,4.63
2022-10-20T23:28:39.174Z,4.80
2022-10-20T23:31:10.511Z,4.53
2022-10-20T23:33:40.509Z,3.73
2022-10-20T23:36:08.865Z,6.33
2022-10-20T23:38:36.122Z,5.93
2022-10-20T23:41:04.298Z,3.80
2022-10-20T23:43:32.017Z,3.97
2022-10-20T23:45:59.285Z,6.00
2022-10-20T23:48:27.448Z,6.40
2022-10-20T23:50:54.823Z,6.47
2022-10-20T23:53:22.267Z,5.90
2022-10-20T23:55:49.208Z,3.33
2022-10-20T23:58:21.180Z,4.40
